sensor_id;sensor_type;location;lat;lon;timestamp;pressure;altitude;pressure_sealevel;temperature;humidity
21359;BME280;13506;50.852;20.632;2023-08-07T00:00:08;96841.31;;;15.05;98.60
21359;BME280;13506;50.852;20.632;2023-08-07T00:02:56;96851.00;;;15.04;98.51
21359;BME280;13506;50.852;20.632;2023-08-07T00:05:24;96851.63;;;15.06;98.14
21359;BME280;13506;50.852;20.632;2023-08-07T00:07:52;96847.91;;;15.00;98.98
21359;BME280;13506;50.852;20.632;2023-08-07T00:10:20;96854.00;;;15.01;98.51
21359;BME280;13506;50.852;20.632;2023-08-07T00:12:48;96853.72;;;14.96;98.89
21359;BME280;13506;50.852;20.632;2023-08-07T00:15:18;96871.84;;;14.91;99.88
21359;BME280;13506;50.852;20.632;2023-08-07T00:17:46;96877.78;;;14.85;100.00
21359;BME280;13506;50.852;20.632;2023-08-07T00:20:14;96874.03;;;14.87;99.87
21359;BME280;13506;50.852;20.632;2023-08-07T00:22:42;96874.03;;;14.87;100.00
21359;BME280;13506;50.852;20.632;2023-08-07T00:25:10;96869.69;;;14.94;99.84
21359;BME280;13506;50.852;20.632;2023-08-07T00:27:39;96870.50;;;14.95;99.16
21359;BME280;13506;50.852;20.632;2023-08-07T00:30:07;96859.97;;;14.95;99.72
21359;BME280;13506;50.852;20.632;2023-08-07T00:32:37;96860.97;;;14.94;98.98
21359;BME280;13506;50.852;20.632;2023-08-07T00:35:06;96866.88;;;14.96;98.70
21359;BME280;13506;50.852;20.632;2023-08-07T00:37:35;96865.53;;;15.00;99.25
21359;BME280;13506;50.852;20.632;2023-08-07T00:40:03;96861.31;;;14.91;98.58
21359;BME280;13506;50.852;20.632;2023-08-07T00:42:31;96853.25;;;14.92;98.06
21359;BME280;13506;50.852;20.632;2023-08-07T00:44:59;96859.69;;;14.90;98.76
21359;BME280;13506;50.852;20.632;2023-08-07T00:47:29;96856.41;;;14.88;98.14
21359;BME280;13506;50.852;20.632;2023-08-07T00:49:59;96855.22;;;14.90;98.05
21359;BME280;13506;50.852;20.632;2023-08-07T00:52:27;96841.88;;;14.92;98.83
21359;BME280;13506;50.852;20.632;2023-08-07T00:54:55;96837.97;;;14.88;98.28
21359;BME280;13506;50.852;20.632;2023-08-07T00:57:24;96843.50;;;14.93;98.64
21359;BME280;13506;50.852;20.632;2023-08-07T00:59:53;96843.81;;;14.98;97.89
21359;BME280;13506;50.852;20.632;2023-08-07T01:02:21;96838.63;;;14.90;96.78
21359;BME280;13506;50.852;20.632;2023-08-07T01:04:50;96832.13;;;14.77;97.30
21359;BME280;13506;50.852;20.632;2023-08-07T01:07:20;96842.59;;;14.86;97.93
21359;BME280;13506;50.852;20.632;2023-08-07T01:09:48;96839.25;;;14.92;97.24
21359;BME280;13506;50.852;20.632;2023-08-07T01:12:18;96845.66;;;14.89;96.76
21359;BME280;13506;50.852;20.632;2023-08-07T01:14:54;96851.13;;;14.88;96.73
21359;BME280;13506;50.852;20.632;2023-08-07T01:17:23;96841.25;;;14.90;96.79
21359;BME280;13506;50.852;20.632;2023-08-07T01:19:53;96853.06;;;14.94;96.12
21359;BME280;13506;50.852;20.632;2023-08-07T01:22:22;96846.50;;;14.90;95.30
21359;BME280;13506;50.852;20.632;2023-08-07T01:24:51;96856.41;;;14.88;96.02
21359;BME280;13506;50.852;20.632;2023-08-07T01:27:33;96857.84;;;14.90;96.18
21359;BME280;13506;50.852;20.632;2023-08-07T01:30:09;96857.22;;;14.88;95.28
21359;BME280;13506;50.852;20.632;2023-08-07T01:32:47;96859.03;;;14.88;95.82
21359;BME280;13506;50.852;20.632;2023-08-07T01:35:22;96852.59;;;14.90;95.22
21359;BME280;13506;50.852;20.632;2023-08-07T01:37:54;96851.78;;;14.90;95.37
21359;BME280;13506;50.852;20.632;2023-08-07T01:40:24;96857.38;;;14.87;95.99
21359;BME280;13506;50.852;20.632;2023-08-07T01:42:54;96861.31;;;14.91;95.37
21359;BME280;13506;50.852;20.632;2023-08-07T01:45:24;96852.13;;;14.87;95.58
21359;BME280;13506;50.852;20.632;2023-08-07T01:47:52;96853.13;;;14.86;95.63
21359;BME280;13506;50.852;20.632;2023-08-07T01:50:21;96851.47;;;14.85;95.58
21359;BME280;13506;50.852;20.632;2023-08-07T01:52:49;96841.59;;;14.87;95.67
21359;BME280;13506;50.852;20.632;2023-08-07T01:55:20;96834.69;;;14.86;95.76
21359;BME280;13506;50.852;20.632;2023-08-07T01:57:52;96833.03;;;14.85;95.53
21359;BME280;13506;50.852;20.632;2023-08-07T02:00:21;96836.03;;;14.81;95.84
21359;BME280;13506;50.852;20.632;2023-08-07T02:02:49;96832.59;;;14.81;95.02
21359;BME280;13506;50.852;20.632;2023-08-07T02:05:17;96836.03;;;14.81;95.11
21359;BME280;13506;50.852;20.632;2023-08-07T02:07:45;96838.84;;;14.80;95.53
21359;BME280;13506;50.852;20.632;2023-08-07T02:10:13;96843.75;;;14.83;94.87
21359;BME280;13506;50.852;20.632;2023-08-07T02:12:44;96852.81;;;14.80;94.82
21359;BME280;13506;50.852;20.632;2023-08-07T02:15:12;96852.84;;;14.72;95.23
21359;BME280;13506;50.852;20.632;2023-08-07T02:17:40;96853.16;;;14.77;95.08
21359;BME280;13506;50.852;20.632;2023-08-07T02:20:10;96860.31;;;14.69;95.52
21359;BME280;13506;50.852;20.632;2023-08-07T02:22:38;96864.75;;;14.68;95.25
21359;BME280;13506;50.852;20.632;2023-08-07T02:25:07;96858.31;;;14.71;95.21
21359;BME280;13506;50.852;20.632;2023-08-07T02:27:38;96865.22;;;14.72;95.48
21359;BME280;13506;50.852;20.632;2023-08-07T02:30:08;96860.75;;;14.72;94.76
21359;BME280;13506;50.852;20.632;2023-08-07T02:32:37;96865.25;;;14.64;95.57
21359;BME280;13506;50.852;20.632;2023-08-07T02:35:08;96867.72;;;14.65;95.23
21359;BME280;13506;50.852;20.632;2023-08-07T02:37:36;96875.66;;;14.57;95.96
21359;BME280;13506;50.852;20.632;2023-08-07T02:40:04;96876.31;;;14.59;95.35
21359;BME280;13506;50.852;20.632;2023-08-07T02:42:33;96874.03;;;14.56;96.38
21359;BME280;13506;50.852;20.632;2023-08-07T02:45:00;96871.69;;;14.61;95.88
21359;BME280;13506;50.852;20.632;2023-08-07T02:47:30;96872.34;;;14.63;95.67
21359;BME280;13506;50.852;20.632;2023-08-07T02:49:58;96876.94;;;14.61;95.86
21359;BME280;13506;50.852;20.632;2023-08-07T02:52:27;96874.69;;;14.58;95.29
21359;BME280;13506;50.852;20.632;2023-08-07T02:54:54;96873.38;;;14.54;95.08
21359;BME280;13506;50.852;20.632;2023-08-07T02:57:23;96865.38;;;14.47;95.52
21359;BME280;13506;50.852;20.632;2023-08-07T02:59:51;96861.25;;;14.45;96.27
21359;BME280;13506;50.852;20.632;2023-08-07T03:02:19;96869.78;;;14.47;96.23
21359;BME280;13506;50.852;20.632;2023-08-07T03:04:49;96868.97;;;14.46;95.83
21359;BME280;13506;50.852;20.632;2023-08-07T03:07:17;96874.59;;;14.43;95.96
21359;BME280;13506;50.852;20.632;2023-08-07T03:09:46;96873.47;;;14.37;96.76
21359;BME280;13506;50.852;20.632;2023-08-07T03:12:15;96871.34;;;14.33;97.02
21359;BME280;13506;50.852;20.632;2023-08-07T03:14:43;96874.78;;;14.25;99.22
21359;BME280;13506;50.852;20.632;2023-08-07T03:17:11;96868.84;;;14.31;97.74
21359;BME280;13506;50.852;20.632;2023-08-07T03:19:41;96864.25;;;14.25;98.00
21359;BME280;13506;50.852;20.632;2023-08-07T03:22:14;96881.72;;;14.26;99.67
21359;BME280;13506;50.852;20.632;2023-08-07T03:24:46;96878.56;;;14.31;99.24
21359;BME280;13506;50.852;20.632;2023-08-07T03:27:15;96878.44;;;14.32;98.41
21359;BME280;13506;50.852;20.632;2023-08-07T03:29:43;96876.09;;;14.29;99.16
21359;BME280;13506;50.852;20.632;2023-08-07T03:32:12;96875.94;;;14.31;99.32
21359;BME280;13506;50.852;20.632;2023-08-07T03:34:40;96870.66;;;14.31;99.73
21359;BME280;13506;50.852;20.632;2023-08-07T03:37:09;96884.34;;;14.34;98.81
21359;BME280;13506;50.852;20.632;2023-08-07T03:39:39;96881.34;;;14.37;99.19
21359;BME280;13506;50.852;20.632;2023-08-07T03:42:07;96884.63;;;14.39;98.29
21359;BME280;13506;50.852;20.632;2023-08-07T03:44:35;96888.06;;;14.40;98.53
21359;BME280;13506;50.852;20.632;2023-08-07T03:47:04;96899.13;;;14.35;99.12
21359;BME280;13506;50.852;20.632;2023-08-07T03:49:32;96898.47;;;14.33;98.69
21359;BME280;13506;50.852;20.632;2023-08-07T03:52:01;96898.13;;;14.36;98.68
21359;BME280;13506;50.852;20.632;2023-08-07T03:54:29;96904.38;;;14.35;98.34
21359;BME280;13506;50.852;20.632;2023-08-07T03:57:00;96913.72;;;14.38;98.74
21359;BME280;13506;50.852;20.632;2023-08-07T03:59:27;96912.44;;;14.34;98.56
21359;BME280;13506;50.852;20.632;2023-08-07T04:01:56;96913.56;;;14.39;98.32
21359;BME280;13506;50.852;20.632;2023-08-07T04:04:24;96924.78;;;14.33;98.70
21359;BME280;13506;50.852;20.632;2023-08-07T04:06:52;96926.44;;;14.34;98.55
21359;BME280;13506;50.852;20.632;2023-08-07T04:09:20;96924.78;;;14.33;99.00
21359;BME280;13506;50.852;20.632;2023-08-07T04:11:48;96927.41;;;14.33;98.43
21359;BME280;13506;50.852;20.632;2023-08-07T04:14:17;96926.06;;;14.37;98.29
21359;BME280;13506;50.852;20.632;2023-08-07T04:16:46;96929.34;;;14.39;98.17
21359;BME280;13506;50.852;20.632;2023-08-07T04:19:13;96927.09;;;14.36;98.07
21359;BME280;13506;50.852;20.632;2023-08-07T04:21:42;96929.72;;;14.36;98.19
21359;BME280;13506;50.852;20.632;2023-08-07T04:24:10;96943.03;;;14.35;97.86
21359;BME280;13506;50.852;20.632;2023-08-07T04:26:38;96944.19;;;14.32;98.22
21359;BME280;13506;50.852;20.632;2023-08-07T04:29:06;96943.31;;;14.32;98.32
21359;BME280;13506;50.852;20.632;2023-08-07T04:31:37;96952.38;;;14.29;99.01
21359;BME280;13506;50.852;20.632;2023-08-07T04:34:04;96940.88;;;14.30;99.30
21359;BME280;13506;50.852;20.632;2023-08-07T04:36:33;96945.13;;;14.31;99.30
21359;BME280;13506;50.852;20.632;2023-08-07T04:39:01;96945.50;;;14.36;99.55
21359;BME280;13506;50.852;20.632;2023-08-07T04:41:29;96947.13;;;14.37;99.24
21359;BME280;13506;50.852;20.632;2023-08-07T04:43:57;96941.88;;;14.37;99.94
21359;BME280;13506;50.852;20.632;2023-08-07T04:46:26;96942.69;;;14.38;100.00
21359;BME280;13506;50.852;20.632;2023-08-07T04:48:55;96948.75;;;14.38;99.99
21359;BME280;13506;50.852;20.632;2023-08-07T04:51:23;96940.38;;;14.43;99.61
21359;BME280;13506;50.852;20.632;2023-08-07T04:53:51;96945.44;;;14.45;99.88
21359;BME280;13506;50.852;20.632;2023-08-07T04:56:19;96948.56;;;14.48;100.00
21359;BME280;13506;50.852;20.632;2023-08-07T04:58:47;96947.03;;;14.62;99.80
21359;BME280;13506;50.852;20.632;2023-08-07T05:01:15;96957.88;;;14.67;99.64
21359;BME280;13506;50.852;20.632;2023-08-07T05:03:44;96957.66;;;14.77;99.38
21359;BME280;13506;50.852;20.632;2023-08-07T05:06:14;96957.16;;;14.81;98.36
21359;BME280;13506;50.852;20.632;2023-08-07T05:08:42;96946.75;;;14.88;97.35
21359;BME280;13506;50.852;20.632;2023-08-07T05:11:10;96959.69;;;14.98;97.11
21359;BME280;13506;50.852;20.632;2023-08-07T05:13:39;96947.75;;;15.10;96.43
21359;BME280;13506;50.852;20.632;2023-08-07T05:16:07;96948.81;;;15.24;95.79
21359;BME280;13506;50.852;20.632;2023-08-07T05:18:35;96950.03;;;15.45;94.80
21359;BME280;13506;50.852;20.632;2023-08-07T05:21:03;96948.72;;;15.64;93.62
21359;BME280;13506;50.852;20.632;2023-08-07T05:23:35;96946.00;;;15.72;91.44
21359;BME280;13506;50.852;20.632;2023-08-07T05:26:03;96951.13;;;15.88;90.51
21359;BME280;13506;50.852;20.632;2023-08-07T05:28:31;96947.94;;;15.93;88.28
21359;BME280;13506;50.852;20.632;2023-08-07T05:30:59;96948.06;;;15.99;87.86
21359;BME280;13506;50.852;20.632;2023-08-07T05:33:27;96962.19;;;16.07;87.97
21359;BME280;13506;50.852;20.632;2023-08-07T05:35:55;96936.78;;;16.06;87.15
21359;BME280;13506;50.852;20.632;2023-08-07T05:38:23;96947.31;;;16.06;86.11
21359;BME280;13506;50.852;20.632;2023-08-07T05:40:53;96948.97;;;16.07;86.35
21359;BME280;13506;50.852;20.632;2023-08-07T05:43:21;96943.59;;;15.85;85.70
21359;BME280;13506;50.852;20.632;2023-08-07T05:45:49;96952.41;;;15.92;84.62
21359;BME280;13506;50.852;20.632;2023-08-07T05:48:18;96948.97;;;15.92;84.78
21359;BME280;13506;50.852;20.632;2023-08-07T05:50:46;96955.44;;;16.04;85.36
21359;BME280;13506;50.852;20.632;2023-08-07T05:53:14;96954.59;;;16.03;85.62
21359;BME280;13506;50.852;20.632;2023-08-07T05:55:42;96956.91;;;16.07;84.16
21359;BME280;13506;50.852;20.632;2023-08-07T05:58:11;96969.00;;;16.16;84.38
21359;BME280;13506;50.852;20.632;2023-08-07T06:00:39;96959.03;;;16.26;84.68
21359;BME280;13506;50.852;20.632;2023-08-07T06:03:08;96975.41;;;16.36;84.11
21359;BME280;13506;50.852;20.632;2023-08-07T06:05:36;96979.88;;;16.36;83.30
21359;BME280;13506;50.852;20.632;2023-08-07T06:08:04;96980.06;;;16.34;82.88
21359;BME280;13506;50.852;20.632;2023-08-07T06:10:32;96975.78;;;16.33;83.31
21359;BME280;13506;50.852;20.632;2023-08-07T06:13:00;96984.94;;;16.22;83.31
21359;BME280;13506;50.852;20.632;2023-08-07T06:15:31;96995.03;;;16.19;83.25
21359;BME280;13506;50.852;20.632;2023-08-07T06:18:00;96989.53;;;16.06;83.07
21359;BME280;13506;50.852;20.632;2023-08-07T06:20:29;96997.09;;;15.94;84.22
21359;BME280;13506;50.852;20.632;2023-08-07T06:22:57;96992.16;;;15.91;84.99
21359;BME280;13506;50.852;20.632;2023-08-07T06:25:25;97000.59;;;15.86;84.33
21359;BME280;13506;50.852;20.632;2023-08-07T06:27:54;97003.59;;;15.83;85.01
21359;BME280;13506;50.852;20.632;2023-08-07T06:30:22;96999.31;;;15.82;84.91
21359;BME280;13506;50.852;20.632;2023-08-07T06:32:51;96998.50;;;15.81;84.89
21359;BME280;13506;50.852;20.632;2023-08-07T06:35:20;97003.78;;;15.81;85.73
21359;BME280;13506;50.852;20.632;2023-08-07T06:37:48;96996.97;;;15.87;85.99
21359;BME280;13506;50.852;20.632;2023-08-07T06:40:16;97005.81;;;15.94;85.53
21359;BME280;13506;50.852;20.632;2023-08-07T06:42:44;97002.72;;;16.06;85.06
21359;BME280;13506;50.852;20.632;2023-08-07T06:45:13;97001.84;;;16.13;85.50
21359;BME280;13506;50.852;20.632;2023-08-07T06:47:41;97002.28;;;16.25;84.98
21359;BME280;13506;50.852;20.632;2023-08-07T06:50:11;97006.28;;;16.36;84.17
21359;BME280;13506;50.852;20.632;2023-08-07T06:52:41;96999.56;;;16.33;82.09
21359;BME280;13506;50.852;20.632;2023-08-07T06:55:17;97004.38;;;16.45;83.31
21359;BME280;13506;50.852;20.632;2023-08-07T06:57:45;97005.09;;;16.53;82.53
21359;BME280;13506;50.852;20.632;2023-08-07T07:00:14;97013.41;;;16.65;81.90
21359;BME280;13506;50.852;20.632;2023-08-07T07:02:42;97018.56;;;16.73;82.10
21359;BME280;13506;50.852;20.632;2023-08-07T07:05:12;97010.81;;;16.87;81.92
21359;BME280;13506;50.852;20.632;2023-08-07T07:07:40;97012.28;;;16.89;81.32
21359;BME280;13506;50.852;20.632;2023-08-07T07:10:09;97012.34;;;16.96;80.23
21359;BME280;13506;50.852;20.632;2023-08-07T07:12:37;97024.66;;;17.03;80.17
21359;BME280;13506;50.852;20.632;2023-08-07T07:15:06;97016.91;;;17.02;78.95
21359;BME280;13506;50.852;20.632;2023-08-07T07:17:34;97027.63;;;17.00;78.97
21359;BME280;13506;50.852;20.632;2023-08-07T07:20:03;97014.06;;;17.03;79.13
21359;BME280;13506;50.852;20.632;2023-08-07T07:22:32;97020.53;;;17.01;77.53
21359;BME280;13506;50.852;20.632;2023-08-07T07:25:01;97014.63;;;16.99;78.73
21359;BME280;13506;50.852;20.632;2023-08-07T07:27:29;97021.00;;;16.90;78.91
21359;BME280;13506;50.852;20.632;2023-08-07T07:29:57;97026.56;;;16.95;79.13
21359;BME280;13506;50.852;20.632;2023-08-07T07:32:25;97023.09;;;17.09;78.78
21359;BME280;13506;50.852;20.632;2023-08-07T07:34:53;97033.22;;;17.20;78.16
21359;BME280;13506;50.852;20.632;2023-08-07T07:37:21;97033.16;;;17.35;77.76
21359;BME280;13506;50.852;20.632;2023-08-07T07:39:51;97040.16;;;17.43;77.12
21359;BME280;13506;50.852;20.632;2023-08-07T07:42:19;97038.59;;;17.49;76.53
21359;BME280;13506;50.852;20.632;2023-08-07T07:44:47;97041.06;;;17.50;76.38
21359;BME280;13506;50.852;20.632;2023-08-07T07:47:16;97051.00;;;17.48;76.69
21359;BME280;13506;50.852;20.632;2023-08-07T07:49:45;97048.34;;;17.48;76.81
21359;BME280;13506;50.852;20.632;2023-08-07T07:52:14;97048.88;;;17.58;76.67
21359;BME280;13506;50.852;20.632;2023-08-07T07:54:42;97045.72;;;17.70;76.16
21359;BME280;13506;50.852;20.632;2023-08-07T07:57:11;97052.63;;;17.71;76.39
21359;BME280;13506;50.852;20.632;2023-08-07T07:59:39;97049.63;;;17.74;75.82
21359;BME280;13506;50.852;20.632;2023-08-07T08:02:08;97054.16;;;17.80;74.85
21359;BME280;13506;50.852;20.632;2023-08-07T08:04:36;97062.16;;;17.87;74.89
21359;BME280;13506;50.852;20.632;2023-08-07T08:07:06;97049.13;;;18.07;74.71
21359;BME280;13506;50.852;20.632;2023-08-07T08:09:35;97051.59;;;18.36;72.47
21359;BME280;13506;50.852;20.632;2023-08-07T08:12:03;97049.53;;;18.60;71.58
21359;BME280;13506;50.852;20.632;2023-08-07T08:14:33;97056.28;;;18.97;71.25
21359;BME280;13506;50.852;20.632;2023-08-07T08:17:01;97048.66;;;19.22;70.45
21359;BME280;13506;50.852;20.632;2023-08-07T08:19:29;97050.53;;;19.35;68.37
21359;BME280;13506;50.852;20.632;2023-08-07T08:21:57;97059.28;;;19.36;67.13
21359;BME280;13506;50.852;20.632;2023-08-07T08:24:26;97052.53;;;19.26;67.03
21359;BME280;13506;50.852;20.632;2023-08-07T08:26:53;97057.41;;;19.23;66.80
21359;BME280;13506;50.852;20.632;2023-08-07T08:29:22;97052.50;;;19.13;66.39
21359;BME280;13506;50.852;20.632;2023-08-07T08:31:51;97062.34;;;19.26;66.80
21359;BME280;13506;50.852;20.632;2023-08-07T08:34:21;97064.75;;;19.21;66.94
21359;BME280;13506;50.852;20.632;2023-08-07T08:36:49;97056.81;;;18.79;66.85
21359;BME280;13506;50.852;20.632;2023-08-07T08:39:18;97064.97;;;18.84;66.65
21359;BME280;13506;50.852;20.632;2023-08-07T08:41:47;97072.28;;;18.76;67.22
21359;BME280;13506;50.852;20.632;2023-08-07T08:44:17;97077.09;;;18.72;67.35
21359;BME280;13506;50.852;20.632;2023-08-07T08:46:51;97068.31;;;18.65;67.44
21359;BME280;13506;50.852;20.632;2023-08-07T08:49:27;97074.53;;;18.51;67.28
21359;BME280;13506;50.852;20.632;2023-08-07T08:51:56;97077.31;;;18.42;67.49
21359;BME280;13506;50.852;20.632;2023-08-07T08:54:26;97081.94;;;18.34;67.45
21359;BME280;13506;50.852;20.632;2023-08-07T08:56:54;97079.81;;;18.22;67.75
21359;BME280;13506;50.852;20.632;2023-08-07T08:59:23;97073.28;;;18.18;68.93
21359;BME280;13506;50.852;20.632;2023-08-07T09:01:53;97070.03;;;18.23;69.40
21359;BME280;13506;50.852;20.632;2023-08-07T09:04:21;97080.91;;;18.28;69.24
21359;BME280;13506;50.852;20.632;2023-08-07T09:06:50;97081.75;;;18.35;69.19
21359;BME280;13506;50.852;20.632;2023-08-07T09:09:20;97077.44;;;18.34;69.09
21359;BME280;13506;50.852;20.632;2023-08-07T09:11:49;97077.56;;;18.48;68.79
21359;BME280;13506;50.852;20.632;2023-08-07T09:14:22;97080.00;;;18.49;69.24
21359;BME280;13506;50.852;20.632;2023-08-07T09:16:54;97092.06;;;18.52;68.82
21359;BME280;13506;50.852;20.632;2023-08-07T09:19:23;97076.31;;;18.43;68.99
21359;BME280;13506;50.852;20.632;2023-08-07T09:21:51;97086.91;;;18.43;69.87
21359;BME280;13506;50.852;20.632;2023-08-07T09:24:19;97091.41;;;18.43;69.61
21359;BME280;13506;50.852;20.632;2023-08-07T09:26:50;97102.13;;;18.35;69.36
21359;BME280;13506;50.852;20.632;2023-08-07T09:29:20;97097.69;;;18.42;69.96
21359;BME280;13506;50.852;20.632;2023-08-07T09:31:48;97112.94;;;18.40;70.07
21359;BME280;13506;50.852;20.632;2023-08-07T09:34:20;97111.88;;;18.34;69.57
21359;BME280;13506;50.852;20.632;2023-08-07T09:36:48;97122.47;;;18.34;69.26
21359;BME280;13506;50.852;20.632;2023-08-07T09:39:24;97135.47;;;18.29;68.06
21359;BME280;13506;50.852;20.632;2023-08-07T09:41:53;97136.00;;;18.18;68.11
21359;BME280;13506;50.852;20.632;2023-08-07T09:44:22;97128.34;;;18.08;67.94
21359;BME280;13506;50.852;20.632;2023-08-07T09:46:50;97127.41;;;17.94;69.16
21359;BME280;13506;50.852;20.632;2023-08-07T09:49:20;97133.88;;;17.92;69.37
21359;BME280;13506;50.852;20.632;2023-08-07T09:51:49;97135.44;;;17.86;69.89
21359;BME280;13506;50.852;20.632;2023-08-07T09:54:18;97130.25;;;17.93;70.26
21359;BME280;13506;50.852;20.632;2023-08-07T09:56:47;97145.78;;;18.02;71.06
21359;BME280;13506;50.852;20.632;2023-08-07T09:59:16;97136.88;;;18.03;70.92
21359;BME280;13506;50.852;20.632;2023-08-07T10:01:44;97137.38;;;18.14;71.35
21359;BME280;13506;50.852;20.632;2023-08-07T10:04:12;97151.25;;;18.16;70.88
21359;BME280;13506;50.852;20.632;2023-08-07T10:06:44;97135.28;;;18.09;71.68
21359;BME280;13506;50.852;20.632;2023-08-07T10:09:14;97146.53;;;18.11;71.18
21359;BME280;13506;50.852;20.632;2023-08-07T10:11:42;97145.88;;;18.09;71.16
21359;BME280;13506;50.852;20.632;2023-08-07T10:14:11;97140.94;;;18.06;71.12
21359;BME280;13506;50.852;20.632;2023-08-07T10:16:40;97149.84;;;17.98;71.43
21359;BME280;13506;50.852;20.632;2023-08-07T10:19:09;97154.69;;;17.95;71.92
21359;BME280;13506;50.852;20.632;2023-08-07T10:21:39;97149.66;;;17.85;72.40
21359;BME280;13506;50.852;20.632;2023-08-07T10:24:10;97148.78;;;17.78;73.13
21359;BME280;13506;50.852;20.632;2023-08-07T10:26:43;97141.03;;;17.76;73.31
21359;BME280;13506;50.852;20.632;2023-08-07T10:29:14;97144.81;;;17.89;73.39
21359;BME280;13506;50.852;20.632;2023-08-07T10:31:45;97154.13;;;17.99;73.21
21359;BME280;13506;50.852;20.632;2023-08-07T10:34:15;97149.78;;;18.13;72.95
21359;BME280;13506;50.852;20.632;2023-08-07T10:36:43;97154.69;;;18.38;72.79
21359;BME280;13506;50.852;20.632;2023-08-07T10:39:15;97147.69;;;18.73;71.56
21359;BME280;13506;50.852;20.632;2023-08-07T10:41:46;97144.19;;;19.01;69.28
21359;BME280;13506;50.852;20.632;2023-08-07T10:44:19;97146.13;;;19.20;68.57
21359;BME280;13506;50.852;20.632;2023-08-07T10:46:48;97138.03;;;19.35;65.80
21359;BME280;13506;50.852;20.632;2023-08-07T10:49:36;97146.28;;;19.47;66.43
21359;BME280;13506;50.852;20.632;2023-08-07T10:52:08;97149.97;;;19.53;65.00
21359;BME280;13506;50.852;20.632;2023-08-07T10:54:40;97145.91;;;19.57;65.20
21359;BME280;13506;50.852;20.632;2023-08-07T10:57:13;97146.13;;;19.55;65.96
21359;BME280;13506;50.852;20.632;2023-08-07T10:59:48;97146.53;;;19.59;66.15
21359;BME280;13506;50.852;20.632;2023-08-07T11:02:24;97156.78;;;19.62;66.66
21359;BME280;13506;50.852;20.632;2023-08-07T11:04:54;97146.78;;;19.71;66.36
21359;BME280;13506;50.852;20.632;2023-08-07T11:07:26;97146.59;;;19.72;65.68
21359;BME280;13506;50.852;20.632;2023-08-07T11:09:56;97140.25;;;19.73;63.80
21359;BME280;13506;50.852;20.632;2023-08-07T11:12:25;97149.66;;;19.82;63.07
21359;BME280;13506;50.852;20.632;2023-08-07T11:14:54;97139.66;;;19.78;62.72
21359;BME280;13506;50.852;20.632;2023-08-07T11:17:25;97149.66;;;19.76;64.09
21359;BME280;13506;50.852;20.632;2023-08-07T11:19:53;97153.97;;;19.77;64.17
21359;BME280;13506;50.852;20.632;2023-08-07T11:22:21;97147.47;;;19.93;63.79
21359;BME280;13506;50.852;20.632;2023-08-07T11:24:51;97154.63;;;20.05;62.73
21359;BME280;13506;50.852;20.632;2023-08-07T11:27:21;97156.28;;;20.13;60.99
21359;BME280;13506;50.852;20.632;2023-08-07T11:29:50;97160.19;;;20.17;59.46
21359;BME280;13506;50.852;20.632;2023-08-07T11:32:21;97153.69;;;20.26;60.40
21359;BME280;13506;50.852;20.632;2023-08-07T11:34:50;97150.84;;;20.41;59.29
21359;BME280;13506;50.852;20.632;2023-08-07T11:37:18;97158.41;;;20.58;59.87
21359;BME280;13506;50.852;20.632;2023-08-07T11:39:48;97164.94;;;20.68;59.81
21359;BME280;13506;50.852;20.632;2023-08-07T11:42:15;97157.78;;;20.82;57.76
21359;BME280;13506;50.852;20.632;2023-08-07T11:44:45;97158.59;;;20.83;57.72
21359;BME280;13506;50.852;20.632;2023-08-07T11:47:14;97155.53;;;20.73;57.78
21359;BME280;13506;50.852;20.632;2023-08-07T11:49:43;97158.81;;;20.81;57.25
21359;BME280;13506;50.852;20.632;2023-08-07T11:52:11;97156.16;;;20.81;57.48
21359;BME280;13506;50.852;20.632;2023-08-07T11:54:40;97163.94;;;20.70;56.24
21359;BME280;13506;50.852;20.632;2023-08-07T11:57:16;97166.38;;;20.64;57.46
21359;BME280;13506;50.852;20.632;2023-08-07T11:59:50;97165.75;;;20.56;57.37
21359;BME280;13506;50.852;20.632;2023-08-07T12:02:24;97167.53;;;20.22;59.29
21359;BME280;13506;50.852;20.632;2023-08-07T12:04:57;97168.19;;;20.31;58.78
21359;BME280;13506;50.852;20.632;2023-08-07T12:07:27;97170.66;;;20.32;58.74
21359;BME280;13506;50.852;20.632;2023-08-07T12:09:56;97173.13;;;20.34;57.28
21359;BME280;13506;50.852;20.632;2023-08-07T12:12:24;97160.41;;;20.29;57.73
21359;BME280;13506;50.852;20.632;2023-08-07T12:14:55;97159.41;;;20.37;57.75
21359;BME280;13506;50.852;20.632;2023-08-07T12:17:23;97158.22;;;20.53;58.07
21359;BME280;13506;50.852;20.632;2023-08-07T12:19:51;97159.44;;;20.63;55.51
21359;BME280;13506;50.852;20.632;2023-08-07T12:22:20;97155.75;;;20.91;57.18
21359;BME280;13506;50.852;20.632;2023-08-07T12:24:49;97163.31;;;21.14;55.30
21359;BME280;13506;50.852;20.632;2023-08-07T12:27:17;97158.97;;;21.26;54.58
21359;BME280;13506;50.852;20.632;2023-08-07T12:29:47;97174.69;;;21.35;54.31
21359;BME280;13506;50.852;20.632;2023-08-07T12:32:16;97167.13;;;21.32;54.47
21359;BME280;13506;50.852;20.632;2023-08-07T12:34:44;97173.25;;;21.39;54.20
21359;BME280;13506;50.852;20.632;2023-08-07T12:37:12;97180.81;;;21.42;54.44
21359;BME280;13506;50.852;20.632;2023-08-07T12:39:41;97184.13;;;21.37;54.86
21359;BME280;13506;50.852;20.632;2023-08-07T12:42:10;97192.56;;;21.14;55.62
21359;BME280;13506;50.852;20.632;2023-08-07T12:44:39;97199.28;;;20.97;55.63
21359;BME280;13506;50.852;20.632;2023-08-07T12:47:07;97196.44;;;20.78;56.52
21359;BME280;13506;50.852;20.632;2023-08-07T12:49:36;97203.59;;;20.51;56.91
21359;BME280;13506;50.852;20.632;2023-08-07T12:52:05;97200.88;;;20.31;58.40
21359;BME280;13506;50.852;20.632;2023-08-07T12:54:34;97187.97;;;20.15;59.82
21359;BME280;13506;50.852;20.632;2023-08-07T12:57:01;97188.53;;;20.03;61.00
21359;BME280;13506;50.852;20.632;2023-08-07T12:59:30;97187.13;;;20.07;61.59